Time;durP1;ratioP1;P1;durP2;ratioP2;P2;SDS_P1;SDS_P2;PMS_P1;PMS_P2;Temp;Humidity;BMP_temperature;BMP_pressure;BME280_temperature;BME280_humidity;BME280_pressure;Samples;Min_cycle;Max_cycle;Signal;HPM_P1;HPM_P2
2021/11/05 00:00:21;;;;;;;14.60;9.90;;;;;;;19.34;53.01;100915.76;114976;1203;58900;-81
2021/11/05 00:03:18;;;;;;;14.00;9.60;;;;;;;19.35;53.08;100913.95;114693;1206;59827;-82
2021/11/05 00:05:46;;;;;;;12.60;9.30;;;;;;;19.34;53.00;100915.59;114702;1205;72304;-81
2021/11/05 00:08:12;;;;;;;12.50;9.50;;;;;;;19.34;52.97;100917.71;114700;1206;58741;-81
2021/11/05 00:10:47;;;;;;;12.70;9.50;;;;;;;19.34;53.10;100921.79;114742;1205;59798;-82
2021/11/05 00:13:13;;;;;;;12.60;9.50;;;;;;;19.35;53.02;100924.79;114562;1206;60013;-82
2021/11/05 00:15:41;;;;;;;15.40;9.00;;;;;;;19.35;53.06;100926.61;114577;1208;58776;-82
2021/11/05 00:18:16;;;;;;;11.80;9.40;;;;;;;19.35;53.16;100928.73;114679;1206;75321;-82
2021/11/05 00:20:54;;;;;;;16.40;10.20;;;;;;;19.35;53.05;100929.80;114890;1198;59880;-81
2021/11/05 00:23:19;;;;;;;14.00;9.90;;;;;;;19.35;53.19;100931.56;115164;1198;60266;-81
2021/11/05 00:25:45;;;;;;;13.50;9.90;;;;;;;19.35;53.18;100928.90;115139;1200;58896;-81
2021/11/05 00:28:29;;;;;;;;;;;;;;;;;;;;;
2021/11/05 00:31:11;;;;;;;12.50;9.10;;;;;;;19.35;53.02;100912.85;115154;1198;60894;-82
2021/11/05 00:33:37;;;;;;;12.20;9.40;;;;;;;19.35;53.12;100915.52;115510;1198;59897;-81
2021/11/05 00:36:14;;;;;;;11.80;9.00;;;;;;;19.35;52.99;100916.79;115165;1190;72478;-81
2021/11/05 00:38:41;;;;;;;13.40;9.60;;;;;;;19.35;53.11;100919.82;115314;1198;74396;-81
2021/11/05 00:41:13;;;;;;;12.40;9.50;;;;;;;19.35;53.07;100917.11;115199;1198;60069;-81
2021/11/05 00:44:30;;;;;;;11.40;8.90;;;;;;;19.35;53.02;100911.59;115128;1199;58899;-82
2021/11/05 00:46:58;;;;;;;14.50;9.60;;;;;;;19.34;53.05;100918.79;114968;1202;72949;-82
2021/11/05 00:49:27;;;;;;;13.20;9.30;;;;;;;19.34;53.20;100923.60;114948;1203;75613;-81
2021/11/05 00:51:58;;;;;;;10.90;8.80;;;;;;;19.34;53.11;100920.38;114966;1194;59895;-81
2021/11/05 00:54:24;;;;;;;15.70;9.60;;;;;;;19.34;53.12;100914.85;114846;1203;60914;-81
2021/11/05 00:56:50;;;;;;;12.30;9.90;;;;;;;19.35;53.14;100903.41;114823;1203;58896;-81
2021/11/05 00:59:38;;;;;;;14.00;9.70;;;;;;;19.34;53.08;100904.33;114836;1203;58997;-82
2021/11/05 01:02:06;;;;;;;13.60;9.00;;;;;;;19.34;53.11;100897.03;114967;1202;60393;-81
2021/11/05 01:04:38;;;;;;;12.50;9.90;;;;;;;19.34;53.25;100891.33;114973;1202;59904;-81
2021/11/05 01:07:14;;;;;;;12.20;9.30;;;;;;;19.34;53.13;100886.86;114851;1202;72314;-81
2021/11/05 01:09:40;;;;;;;13.10;9.70;;;;;;;19.34;53.10;100888.28;114960;1202;75252;-81
2021/11/05 01:12:15;;;;;;;13.70;10.20;;;;;;;19.34;53.03;100888.11;114848;1202;58911;-82
2021/11/05 01:14:53;;;;;;;12.20;9.90;;;;;;;19.34;53.11;100883.81;114990;1202;60817;-81
2021/11/05 01:17:50;;;;;;;12.90;9.70;;;;;;;19.34;53.17;100885.95;114948;1202;73631;-82
2021/11/05 01:20:34;;;;;;;;;;;;;;;;;;;;;
2021/11/05 01:23:35;;;;;;;12.50;9.90;;;;;;;19.32;53.19;100901.05;115013;1200;58861;-81
2021/11/05 01:26:00;;;;;;;13.00;10.20;;;;;;;19.32;53.12;100896.95;115327;1198;61268;-82
2021/11/05 01:28:52;;;;;;;13.10;9.40;;;;;;;19.33;53.12;100889.96;115184;1198;71926;-81
2021/11/05 01:31:44;;;;;;;13.70;9.40;;;;;;;19.32;53.21;100877.67;115242;1198;74238;-81
2021/11/05 01:34:13;;;;;;;14.40;10.10;;;;;;;19.32;53.21;100875.73;115240;1200;59991;-81
2021/11/05 01:39:45;;;;;;;14.80;9.80;;;;;;;19.32;53.15;100877.90;115010;1198;72816;-80
2021/11/05 01:42:22;;;;;;;13.70;9.90;;;;;;;19.32;53.20;100875.38;115168;1198;73731;-80
2021/11/05 01:44:47;;;;;;;13.80;10.30;;;;;;;19.32;53.15;100873.77;115289;1198;59908;-80
2021/11/05 01:47:25;;;;;;;14.00;9.60;;;;;;;19.32;53.09;100871.63;115186;1198;60163;-81
2021/11/05 01:50:27;;;;;;;13.20;10.00;;;;;;;19.32;53.16;100871.47;115206;1199;73192;-80
2021/11/05 01:52:59;;;;;;;14.70;10.00;;;;;;;19.32;53.32;100879.33;115211;1198;74302;-82
2021/11/05 01:55:40;;;;;;;12.50;9.60;;;;;;;19.32;53.19;100877.38;115264;1198;60555;-81
2021/11/05 01:58:25;;;;;;;13.90;9.90;;;;;;;19.32;53.28;100876.30;115195;1198;61169;-81
2021/11/05 02:01:02;;;;;;;14.60;9.70;;;;;;;19.32;53.14;100877.71;115123;1199;72010;-82
2021/11/05 02:03:51;;;;;;;;;;;;;;;;;;;;;
2021/11/05 02:07:02;;;;;;;;;;;;;;;;;;;;;
2021/11/05 02:10:01;;;;;;;14.40;10.20;;;;;;;19.30;53.21;100874.21;115217;1198;60092;-82
2021/11/05 02:12:38;;;;;;;14.70;10.50;;;;;;;19.30;53.14;100867.27;115230;1198;72940;-82
2021/11/05 02:15:19;;;;;;;13.10;10.50;;;;;;;19.31;53.18;100866.16;115486;1198;75240;-82
2021/11/05 02:18:07;;;;;;;15.90;10.20;;;;;;;19.31;53.27;100865.83;115197;1199;61181;-82
2021/11/05 02:21:04;;;;;;;13.50;10.50;;;;;;;19.30;53.19;100864.43;115201;1198;60881;-82
2021/11/05 02:23:37;;;;;;;14.90;9.90;;;;;;;19.30;53.23;100862.28;115300;1198;73306;-82
2021/11/05 02:26:26;;;;;;;13.20;10.20;;;;;;;19.30;53.26;100853.90;115290;1198;74330;-82
2021/11/05 02:28:53;;;;;;;13.90;10.10;;;;;;;19.31;53.33;100851.21;115493;1198;59634;-83
2021/11/05 02:31:26;;;;;;;11.90;9.20;;;;;;;19.30;53.30;100851.79;115201;1198;61157;-82
2021/11/05 02:34:26;;;;;;;12.80;9.50;;;;;;;19.30;53.27;100849.10;115124;1198;72221;-82
2021/11/05 02:37:05;;;;;;;12.10;9.40;;;;;;;19.30;53.27;100854.13;115032;1202;74037;-82
2021/11/05 02:39:43;;;;;;;13.30;10.30;;;;;;;19.30;53.29;100860.14;114974;1203;60631;-82
2021/11/05 02:42:09;;;;;;;14.30;10.40;;;;;;;19.30;53.19;100866.59;115181;1201;60049;-82
2021/11/05 02:44:38;;;;;;;14.10;10.20;;;;;;;19.30;53.29;100869.63;115038;1202;72371;-82
2021/11/05 02:47:29;;;;;;;14.90;10.10;;;;;;;19.30;53.17;100869.27;114950;1203;59015;-82
2021/11/05 02:50:18;;;;;;;14.90;10.50;;;;;;;19.29;53.25;100868.78;114953;1202;60177;-82
2021/11/05 02:52:46;;;;;;;13.30;9.50;;;;;;;19.30;53.30;100869.46;115027;1202;60302;-82
2021/11/05 02:55:32;;;;;;;13.90;9.80;;;;;;;19.30;53.27;100873.58;114931;1202;72258;-82
2021/11/05 02:57:57;;;;;;;14.20;10.10;;;;;;;19.29;53.20;100872.33;115007;1202;75290;-82
2021/11/05 03:00:53;;;;;;;14.10;10.20;;;;;;;19.29;53.16;100877.34;114837;1202;58869;-82
2021/11/05 03:03:43;;;;;;;12.10;9.50;;;;;;;19.29;53.28;100879.64;114805;1205;60931;-82
2021/11/05 03:06:14;;;;;;;14.90;10.30;;;;;;;19.29;53.22;100886.09;114815;1205;72794;-82
2021/11/05 03:08:49;;;;;;;14.10;9.90;;;;;;;19.30;53.20;100888.19;114819;1205;58940;-82
2021/11/05 03:11:17;;;;;;;14.60;11.20;;;;;;;19.29;53.26;100885.53;114768;1205;60068;-82
2021/11/05 03:14:09;;;;;;;14.60;10.10;;;;;;;19.29;53.42;100883.61;114877;1202;60153;-82
2021/11/05 03:16:55;;;;;;;14.20;10.30;;;;;;;19.29;53.34;100883.44;114829;1202;71138;-82
2021/11/05 03:19:24;;;;;;;13.80;10.20;;;;;;;19.29;53.18;100882.36;114834;1203;59188;-81
2021/11/05 03:22:10;;;;;;;;;;;;;;;;;;;;;
2021/11/05 03:25:11;;;;;;;15.30;10.30;;;;;;;19.28;53.33;100875.79;114854;1202;60365;-80
2021/11/05 03:27:47;;;;;;;14.40;10.50;;;;;;;19.28;53.32;100882.75;114841;1203;71259;-81
2021/11/05 03:30:23;;;;;;;14.20;10.60;;;;;;;19.29;53.38;100892.36;114937;1202;74423;-81
2021/11/05 03:32:54;;;;;;;14.30;10.70;;;;;;;19.28;53.33;100895.23;114863;1203;59689;-81
2021/11/05 03:35:25;;;;;;;14.60;9.90;;;;;;;19.28;53.32;100893.46;114840;1203;60043;-81
2021/11/05 03:37:59;;;;;;;16.70;10.80;;;;;;;19.28;53.25;100890.05;114868;1202;72300;-81
2021/11/05 03:40:45;;;;;;;14.50;10.50;;;;;;;19.29;53.29;100888.98;115012;1198;74175;-80
2021/11/05 03:43:11;;;;;;;14.80;10.40;;;;;;;19.27;53.42;100881.19;115467;1198;59940;-80
2021/11/05 03:45:48;;;;;;;13.20;10.70;;;;;;;19.27;53.31;100878.52;115245;1198;62207;-81
2021/11/05 03:48:14;;;;;;;14.40;10.30;;;;;;;19.27;53.30;100878.88;115195;1198;63779;-81
2021/11/05 03:50:48;;;;;;;14.30;10.50;;;;;;;19.27;53.14;100878.33;115238;1198;65828;-81
2021/11/05 03:53:36;;;;;;;13.20;10.30;;;;;;;19.27;53.34;100877.81;115199;1198;58798;-81
2021/11/05 03:56:25;;;;;;;14.30;10.60;;;;;;;19.27;53.45;100881.20;115341;1198;58910;-81
2021/11/05 03:58:55;;;;;;;15.10;11.00;;;;;;;19.26;53.33;100881.77;115110;1198;63604;-81
2021/11/05 04:01:42;;;;;;;12.70;9.80;;;;;;;19.27;53.36;100887.13;115178;1198;65475;-81
2021/11/05 04:04:29;;;;;;;12.10;10.10;;;;;;;19.25;53.39;100884.33;115326;1198;58900;-80
2021/11/05 04:06:55;;;;;;;14.40;11.00;;;;;;;19.27;53.32;100890.87;115153;1198;60045;-80
2021/11/05 04:09:33;;;;;;;14.90;10.40;;;;;;;19.27;53.30;100893.73;115177;1200;58714;-80
2021/11/05 04:12:22;;;;;;;14.90;11.40;;;;;;;19.27;53.36;100897.27;115146;1198;75263;-80
2021/11/05 04:15:17;;;;;;;14.80;10.40;;;;;;;19.26;53.42;100896.29;115217;1198;59316;-81
2021/11/05 04:17:43;;;;;;;16.10;11.10;;;;;;;19.27;53.36;100892.84;115325;1198;59727;-81
2021/11/05 04:20:34;;;;;;;14.20;10.50;;;;;;;19.26;53.40;100888.75;115207;1198;72321;-81
2021/11/05 04:23:12;;;;;;;13.90;10.60;;;;;;;19.26;53.32;100883.24;115303;1198;75086;-80
2021/11/05 04:25:42;;;;;;;14.30;10.70;;;;;;;19.25;53.38;100879.17;115336;1198;60022;-80
2021/11/05 04:28:27;;;;;;;14.90;10.40;;;;;;;19.26;53.37;100872.34;115198;1198;59884;-81
2021/11/05 04:31:14;;;;;;;14.10;10.90;;;;;;;19.25;53.39;100870.05;115188;1198;72216;-81
2021/11/05 04:33:49;;;;;;;12.00;10.30;;;;;;;19.25;53.49;100871.51;115301;1198;74114;-81
2021/11/05 04:36:23;;;;;;;15.50;10.70;;;;;;;19.25;53.34;100871.34;115170;1199;59139;-81
2021/11/05 04:39:27;;;;;;;14.60;10.50;;;;;;;19.25;53.45;100875.25;115137;1200;58982;-82
2021/11/05 04:42:09;;;;;;;14.80;11.00;;;;;;;19.25;53.42;100884.20;115144;1199;71262;-82
2021/11/05 04:44:38;;;;;;;15.80;10.70;;;;;;;19.25;53.49;100889.52;115300;1198;75145;-82
2021/11/05 04:47:17;;;;;;;14.60;11.00;;;;;;;19.25;53.31;100886.14;115129;1199;60954;-82
2021/11/05 04:50:02;;;;;;;15.00;10.70;;;;;;;19.25;53.47;100881.69;115169;1192;59729;-82
2021/11/05 04:52:38;;;;;;;14.80;11.30;;;;;;;19.25;53.34;100877.42;115160;1199;73376;-81
2021/11/05 04:55:12;;;;;;;14.50;10.60;;;;;;;19.25;53.25;100875.61;115153;1199;74407;-83
2021/11/05 04:58:18;;;;;;;14.70;10.50;;;;;;;19.24;53.42;100876.77;115324;1198;58876;-82
2021/11/05 05:01:04;;;;;;;;;;;;;;;;;;;;;
2021/11/05 05:03:44;;;;;;;16.10;11.00;;;;;;;19.24;53.33;100880.83;115214;1200;73442;-82
2021/11/05 05:06:13;;;;;;;13.10;10.50;;;;;;;19.24;53.46;100881.01;115091;1199;74404;-82
2021/11/05 05:09:10;;;;;;;13.80;10.50;;;;;;;19.24;53.38;100881.05;115196;1192;59953;-82
2021/11/05 05:11:47;;;;;;;;;;;;;;;;;;;;;
2021/11/05 05:14:56;;;;;;;;;;;;;;;;;;;;;
2021/11/05 05:17:53;;;;;;;14.60;11.30;;;;;;;19.23;53.44;100887.17;115213;1200;74178;-82
2021/11/05 05:20:45;;;;;;;15.20;11.30;;;;;;;19.23;53.49;100886.41;115134;1198;61092;-82
2021/11/05 05:23:46;;;;;;;14.90;11.00;;;;;;;19.23;53.43;100883.42;115128;1198;59986;-82
2021/11/05 05:26:14;;;;;;;15.00;10.80;;;;;;;19.23;53.47;100884.45;115187;1200;73262;-82
2021/11/05 05:29:44;;;;;;;12.60;10.30;;;;;;;19.23;53.41;100885.21;115094;1200;75390;-82
2021/11/05 05:32:11;;;;;;;13.80;10.70;;;;;;;19.21;53.40;100885.65;115015;1202;58969;-82
2021/11/05 05:34:37;;;;;;;13.80;11.50;;;;;;;19.21;53.39;100889.92;114965;1202;59971;-82
2021/11/05 05:37:15;;;;;;;;;;;;;;;;;;;;;
2021/11/05 05:39:52;;;;;;;15.70;11.00;;;;;;;19.22;53.55;100892.93;114795;1203;75127;-82
2021/11/05 05:42:18;;;;;;;16.40;11.20;;;;;;;19.21;53.54;100884.95;114823;1204;61045;-82
2021/11/05 05:44:53;;;;;;;14.10;11.00;;;;;;;19.22;53.46;100887.05;114718;1203;58893;-82
2021/11/05 05:47:33;;;;;;;16.00;11.00;;;;;;;19.22;53.41;100889.38;114792;1203;73370;-81
2021/11/05 05:50:23;;;;;;;16.30;11.50;;;;;;;19.22;53.56;100893.67;114784;1203;75481;-81
2021/11/05 05:53:01;;;;;;;15.10;11.00;;;;;;;19.21;53.56;100907.95;114750;1203;59967;-81
2021/11/05 05:55:39;;;;;;;18.50;11.90;;;;;;;19.22;53.55;100914.91;114806;1203;60042;-82
2021/11/05 05:58:08;;;;;;;16.80;11.30;;;;;;;19.21;53.61;100917.41;114798;1205;73290;-82
2021/11/05 06:01:03;;;;;;;;;;;;;;;;;;;;;
2021/11/05 06:03:59;;;;;;;15.70;10.10;;;;;;;19.22;53.29;100915.09;114695;1203;58813;-82
2021/11/05 06:06:30;;;;;;;15.40;10.90;;;;;;;19.21;53.51;100918.13;114736;1203;60084;-82
2021/11/05 06:09:27;;;;;;;;;;;;;;;;;;;;;
2021/11/05 06:11:51;;;;;;;16.10;11.50;;;;;;;19.21;53.46;100914.40;115187;1201;75523;-82
2021/11/05 06:14:36;;;;;;;14.30;10.50;;;;;;;19.21;53.40;100914.74;115066;1201;59942;-82
2021/11/05 06:17:10;;;;;;;16.10;11.20;;;;;;;19.21;53.53;100915.83;115201;1199;60130;-82
2021/11/05 06:19:46;;;;;;;17.60;11.10;;;;;;;19.22;53.54;100917.56;115297;1199;58964;-81
2021/11/05 06:22:46;;;;;;;15.50;10.70;;;;;;;19.22;53.41;100917.20;115158;1198;75541;-82
2021/11/05 06:25:11;;;;;;;13.90;10.90;;;;;;;19.21;53.48;100921.87;115300;1198;60911;-82
2021/11/05 06:27:45;;;;;;;15.00;11.40;;;;;;;19.22;53.42;100928.61;115166;1199;59303;-81
2021/11/05 06:30:31;;;;;;;16.50;11.90;;;;;;;19.22;53.42;100932.17;115106;1198;73365;-81
2021/11/05 06:33:06;;;;;;;16.40;11.80;;;;;;;19.22;53.64;100940.95;115262;1199;74232;-82
2021/11/05 06:35:44;;;;;;;14.60;10.90;;;;;;;19.23;53.48;100944.82;115282;1198;59986;-81
2021/11/05 06:38:19;;;;;;;14.90;11.20;;;;;;;19.23;53.41;100939.29;115119;1198;60043;-81
2021/11/05 06:41:06;;;;;;;15.60;11.50;;;;;;;19.22;53.42;100936.84;115158;1199;71315;-82
2021/11/05 06:43:49;;;;;;;14.50;11.10;;;;;;;19.22;53.43;100938.44;115128;1198;74156;-81
2021/11/05 06:46:40;;;;;;;18.80;12.50;;;;;;;19.22;53.43;100937.54;115135;1198;60054;-81
2021/11/05 06:52:37;;;;;;;15.60;11.20;;;;;;;19.21;53.49;100940.30;115287;1198;72192;-82
2021/11/05 06:55:15;;;;;;;15.80;11.40;;;;;;;19.21;53.41;100942.06;115182;1198;65652;-81
2021/11/05 06:57:49;;;;;;;16.10;11.30;;;;;;;19.21;53.41;100944.20;115170;1198;58809;-81
2021/11/05 07:00:54;;;;;;;15.70;11.50;;;;;;;19.20;53.51;100946.55;115254;1198;58729;-82
2021/11/05 07:03:28;;;;;;;16.20;11.70;;;;;;;19.21;53.53;100952.96;115181;1198;64923;-82
2021/11/05 07:06:00;;;;;;;15.00;10.70;;;;;;;19.21;53.58;100949.71;115324;1198;65745;-82
2021/11/05 07:08:47;;;;;;;;;;;;;;;19.22;53.40;100945.58;115217;1198;59746;-81
2021/11/05 07:11:15;;;;;;;23.60;13.20;;;;;;;19.19;53.58;100941.64;115322;1198;61103;-81
2021/11/05 07:14:13;;;;;;;19.60;12.30;;;;;;;19.21;53.47;100941.14;115171;1199;72026;-82
2021/11/05 07:17:35;;;;;;;;;;;;;;;;;;;;;
2021/11/05 07:19:56;;;;;;;20.30;11.80;;;;;;;19.25;53.37;100950.04;115168;1198;60176;-82
2021/11/05 07:22:42;;;;;;;16.60;10.80;;;;;;;19.28;53.37;100948.61;115159;1198;60117;-81
2021/11/05 07:25:36;;;;;;;17.00;10.70;;;;;;;19.32;53.33;100950.34;114816;1203;72249;-81
2021/11/05 07:28:18;;;;;;;15.30;10.20;;;;;;;19.36;53.29;100949.19;114926;1203;75877;-81
2021/11/05 07:31:53;;;;;;;18.50;11.20;;;;;;;19.40;53.41;100946.41;114953;1202;59962;-81
2021/11/05 07:34:32;;;;;;;;;;;;;;;;;;;;;
2021/11/05 07:37:36;;;;;;;15.40;10.90;;;;;;;19.50;53.32;100940.83;114614;1206;73441;-81
2021/11/05 07:40:32;;;;;;;16.70;10.30;;;;;;;19.54;53.39;100946.27;114695;1205;74371;-82
2021/11/05 07:43:29;;;;;;;;;;;;;;;;;;;;;
2021/11/05 07:45:58;;;;;;;16.20;10.40;;;;;;;19.63;53.13;100955.71;114582;1205;60979;-82
2021/11/05 07:48:51;;;;;;;16.50;10.50;;;;;;;19.67;53.12;100954.58;114623;1205;73536;-81
2021/11/05 07:51:17;;;;;;;17.50;10.80;;;;;;;19.71;53.06;100952.22;114599;1206;74969;-81
2021/11/05 07:53:53;;;;;;;17.00;10.30;;;;;;;19.73;53.09;100945.97;114666;1205;58946;-82
2021/11/05 07:56:21;;;;;;;16.60;10.50;;;;;;;19.78;53.08;100946.95;114728;1203;60117;-81
2021/11/05 07:58:57;;;;;;;15.60;10.40;;;;;;;19.81;52.98;100946.05;114804;1203;72227;-81
2021/11/05 08:02:03;;;;;;;15.30;9.80;;;;;;;19.85;53.01;100953.50;114864;1202;75369;-81
2021/11/05 08:04:32;;;;;;;15.20;10.60;;;;;;;19.87;52.99;100953.39;114880;1202;60913;-82
2021/11/05 08:07:11;;;;;;;15.60;10.20;;;;;;;19.90;52.97;100958.19;114777;1203;60294;-82
2021/11/05 08:10:21;;;;;;;14.00;10.30;;;;;;;19.92;52.86;100959.98;114836;1202;70601;-81
2021/11/05 08:13:18;;;;;;;;;;;;;;;;;;;;;
2021/11/05 08:16:17;;;;;;;15.70;9.20;;;;;;;19.97;52.84;100958.59;115055;1200;60011;-82
2021/11/05 08:18:52;;;;;;;15.60;9.70;;;;;;;19.99;52.75;100962.59;114926;1201;58966;-82
2021/11/05 08:21:51;;;;;;;17.30;10.00;;;;;;;20.01;52.84;100960.84;114819;1202;72350;-82
2021/11/05 08:24:18;;;;;;;14.30;9.50;;;;;;;20.03;52.86;100957.55;114962;1201;75195;-82
2021/11/05 08:26:44;;;;;;;14.10;9.80;;;;;;;20.05;52.83;100955.08;114840;1201;60650;-82
2021/11/05 08:29:11;;;;;;;14.40;9.80;;;;;;;20.07;52.82;100959.04;115039;1201;60105;-81
2021/11/05 08:31:57;;;;;;;16.80;10.40;;;;;;;20.09;52.64;100959.62;114667;1203;70009;-81
2021/11/05 08:34:25;;;;;;;14.30;9.40;;;;;;;20.11;52.63;100962.03;114662;1203;59160;-81
2021/11/05 08:36:54;;;;;;;14.60;9.70;;;;;;;20.12;52.59;100964.09;114663;1203;59287;-81
2021/11/05 08:39:30;;;;;;;;;;;;;;;;;;;;;
2021/11/05 08:41:59;;;;;;;16.20;9.50;;;;;;;20.14;52.39;100960.39;114679;1203;71269;-82
2021/11/05 08:44:32;;;;;;;14.80;9.30;;;;;;;20.15;52.48;100960.70;114629;1203;74250;-82
2021/11/05 08:46:59;;;;;;;13.50;10.00;;;;;;;20.16;52.44;100960.63;114666;1203;59359;-81
2021/11/05 08:49:41;;;;;;;15.60;9.90;;;;;;;20.18;52.29;100961.06;114564;1204;60255;-82
2021/11/05 08:52:16;;;;;;;13.40;9.60;;;;;;;20.19;52.35;100959.34;114660;1205;72268;-81
2021/11/05 08:54:42;;;;;;;15.30;9.40;;;;;;;20.20;52.25;100960.52;114644;1204;74336;-82
2021/11/05 08:57:08;;;;;;;15.50;9.60;;;;;;;20.22;52.28;100962.76;114797;1203;59356;-81
2021/11/05 08:59:45;;;;;;;;;;;;;;;;;;;;;
2021/11/05 09:02:23;;;;;;;12.20;9.20;;;;;;;20.24;52.19;100966.02;114840;1200;71622;-82
2021/11/05 09:04:52;;;;;;;12.90;9.00;;;;;;;20.25;52.13;100969.33;115012;1199;75242;-82
2021/11/05 09:07:28;;;;;;;13.10;9.10;;;;;;;20.25;52.22;100964.86;115135;1200;61391;-82
2021/11/05 09:09:54;;;;;;;16.90;9.20;;;;;;;20.25;52.02;100965.54;115105;1198;60172;-81
2021/11/05 09:12:22;;;;;;;17.00;10.50;;;;;;;20.27;51.96;100958.68;115167;1200;58932;-82
2021/11/05 09:14:57;;;;;;;13.90;8.80;;;;;;;20.27;52.02;100948.46;115058;1198;74376;-82
2021/11/05 09:17:25;;;;;;;15.00;9.30;;;;;;;20.28;51.91;100954.66;115078;1198;58767;-82
2021/11/05 09:20:01;;;;;;;15.10;9.20;;;;;;;20.29;51.99;100956.95;115099;1198;60491;-82
2021/11/05 09:22:27;;;;;;;14.10;9.30;;;;;;;20.29;51.84;100951.73;115126;1198;72178;-82
2021/11/05 09:25:03;;;;;;;12.90;9.30;;;;;;;20.30;51.91;100943.67;115078;1200;74384;-81
2021/11/05 09:27:29;;;;;;;13.40;8.90;;;;;;;20.31;51.82;100944.13;115111;1200;60527;-81
2021/11/05 09:29:59;;;;;;;15.50;9.10;;;;;;;20.32;51.88;100946.37;115136;1200;60146;-82
2021/11/05 09:32:25;;;;;;;13.60;9.20;;;;;;;20.33;51.74;100948.45;115155;1200;58759;-82
2021/11/05 09:34:52;;;;;;;14.80;9.00;;;;;;;20.33;51.69;100945.36;115057;1198;59208;-81
2021/11/05 09:37:24;;;;;;;13.10;9.00;;;;;;;20.34;51.79;100947.49;115217;1200;58826;-81
2021/11/05 09:39:50;;;;;;;15.10;9.70;;;;;;;20.33;51.66;100947.21;115077;1200;60067;-81
2021/11/05 09:42:16;;;;;;;13.10;8.50;;;;;;;20.33;51.73;100947.74;115205;1200;58955;-82
2021/11/05 09:44:46;;;;;;;12.50;8.90;;;;;;;20.33;51.59;100948.65;115119;1198;59021;-81
2021/11/05 09:47:14;;;;;;;11.50;8.70;;;;;;;20.32;51.64;100946.17;115155;1199;61057;-81
2021/11/05 09:49:49;;;;;;;12.30;8.80;;;;;;;20.31;51.63;100948.02;115254;1200;59035;-81
2021/11/05 09:52:17;;;;;;;14.10;9.30;;;;;;;20.30;51.66;100947.77;115159;1200;73305;-82
2021/11/05 09:54:43;;;;;;;14.10;8.50;;;;;;;20.28;51.60;100937.66;115092;1199;59043;-82
2021/11/05 09:57:10;;;;;;;16.60;9.60;;;;;;;20.28;51.50;100936.98;115118;1198;58891;-82
2021/11/05 09:59:38;;;;;;;16.30;9.90;;;;;;;20.27;51.56;100927.05;115057;1198;59185;-82
2021/11/05 10:02:04;;;;;;;14.80;9.00;;;;;;;20.25;51.62;100926.27;115097;1198;72652;-82
2021/11/05 10:04:31;;;;;;;12.90;8.90;;;;;;;20.23;51.62;100921.38;115115;1200;59056;-81
2021/11/05 10:07:26;;;;;;;14.80;8.50;;;;;;;20.21;51.64;100919.02;115125;1200;61353;-81
2021/11/05 10:09:53;;;;;;;11.80;8.30;;;;;;;20.19;51.61;100915.20;115176;1198;60041;-82
2021/11/05 10:12:21;;;;;;;12.20;8.10;;;;;;;20.18;51.81;100906.16;115121;1198;73542;-82
2021/11/05 10:15:10;;;;;;;12.50;8.90;;;;;;;20.17;51.79;100902.86;115059;1199;74386;-82
2021/11/05 10:17:41;;;;;;;13.80;8.30;;;;;;;20.15;51.91;100891.04;115035;1200;59955;-82
2021/11/05 10:20:09;;;;;;;12.50;8.50;;;;;;;20.13;51.92;100888.79;115083;1200;58806;-81
2021/11/05 10:22:50;;;;;;;;;;;;;;;;;;;;;
2021/11/05 10:25:48;;;;;;;15.10;8.40;;;;;;;20.11;51.92;100887.14;115276;1198;74860;-82
2021/11/05 10:28:24;;;;;;;12.20;8.40;;;;;;;20.09;51.97;100879.23;115056;1201;60975;-81
2021/11/05 10:31:37;;;;;;;14.70;8.90;;;;;;;20.08;51.90;100875.36;115157;1201;61044;-82
2021/11/05 10:34:11;;;;;;;13.30;8.50;;;;;;;20.06;51.93;100871.40;114663;1205;72443;-81
2021/11/05 10:36:42;;;;;;;13.00;8.80;;;;;;;20.05;51.88;100878.77;114562;1206;74244;-82
2021/11/05 10:39:22;;;;;;;13.10;8.90;;;;;;;20.04;51.94;100879.38;114585;1206;60813;-82
2021/11/05 10:42:01;;;;;;;14.10;8.70;;;;;;;20.03;51.85;100876.92;114589;1206;60275;-82
2021/11/05 10:45:33;;;;;;;11.80;8.00;;;;;;;20.01;51.91;100865.63;114612;1206;71003;-82
2021/11/05 10:48:19;;;;;;;12.50;8.10;;;;;;;19.99;52.00;100865.27;114623;1206;75506;-82
2021/11/05 10:51:14;;;;;;;12.60;8.30;;;;;;;19.98;51.87;100871.38;114622;1206;58880;-82
2021/11/05 10:53:44;;;;;;;13.30;8.60;;;;;;;19.96;51.91;100860.44;114502;1208;60175;-83
2021/11/05 10:56:24;;;;;;;14.90;8.60;;;;;;;19.95;51.81;100861.20;114428;1209;73737;-83
2021/11/05 10:59:15;;;;;;;15.20;8.50;;;;;;;19.94;51.86;100856.46;114328;1209;74657;-82
2021/11/05 11:01:43;;;;;;;13.10;8.00;;;;;;;19.93;51.97;100853.98;114471;1209;60005;-83
2021/11/05 11:04:23;;;;;;;15.50;8.40;;;;;;;19.92;51.70;100850.33;114402;1208;60161;-82
2021/11/05 11:06:52;;;;;;;13.70;8.30;;;;;;;19.91;51.79;100849.13;114462;1208;73751;-82
2021/11/05 11:09:21;;;;;;;15.70;8.60;;;;;;;19.91;51.79;100858.61;114529;1208;74577;-83
2021/11/05 11:12:17;;;;;;;12.50;8.40;;;;;;;19.90;51.94;100859.75;114696;1204;60767;-82
2021/11/05 11:14:53;;;;;;;15.40;8.30;;;;;;;19.89;51.84;100861.43;114560;1207;59793;-82
2021/11/05 11:17:57;;;;;;;13.70;7.90;;;;;;;19.88;51.88;100860.77;114583;1206;73306;-82
2021/11/05 11:20:52;;;;;;;16.60;8.60;;;;;;;19.86;51.71;100852.31;114596;1206;73830;-82
2021/11/05 11:23:47;;;;;;;12.30;8.00;;;;;;;19.86;51.83;100847.88;114576;1206;60268;-82
2021/11/05 11:26:13;;;;;;;14.20;8.40;;;;;;;19.85;51.81;100847.02;114593;1207;60653;-83
2021/11/05 11:29:04;;;;;;;16.00;8.80;;;;;;;19.85;51.76;100843.65;114574;1207;71093;-81
2021/11/05 11:31:51;;;;;;;13.50;8.00;;;;;;;19.85;51.85;100845.61;114845;1202;73811;-82
2021/11/05 11:34:23;;;;;;;14.40;7.90;;;;;;;19.85;51.85;100836.16;114887;1203;61296;-82
2021/11/05 11:37:02;;;;;;;14.10;8.00;;;;;;;19.85;51.69;100832.05;114828;1202;60551;-82
2021/11/05 11:39:37;;;;;;;15.10;8.40;;;;;;;19.84;51.71;100833.02;114940;1202;72657;-82
2021/11/05 11:42:32;;;;;;;12.80;7.50;;;;;;;19.83;51.74;100834.13;114831;1202;74309;-82
2021/11/05 11:45:11;;;;;;;13.60;8.20;;;;;;;19.83;51.80;100835.75;114824;1203;59517;-82
2021/11/05 11:47:49;;;;;;;11.00;7.50;;;;;;;19.83;51.60;100834.70;114829;1203;61172;-82
2021/11/05 11:50:44;;;;;;;13.60;7.70;;;;;;;19.82;51.63;100829.52;114933;1203;72161;-82
2021/11/05 11:53:10;;;;;;;12.30;7.70;;;;;;;19.82;51.74;100834.42;115098;1200;75218;-82
2021/11/05 11:55:38;;;;;;;13.20;8.00;;;;;;;19.82;51.68;100831.21;115187;1199;58796;-82
2021/11/05 11:59:00;;;;;;;13.60;8.30;;;;;;;19.81;51.67;100832.83;115065;1199;59809;-82
2021/11/05 12:01:45;;;;;;;13.70;7.70;;;;;;;19.81;51.74;100839.45;115048;1199;71024;-82
2021/11/05 12:04:17;;;;;;;12.50;7.70;;;;;;;19.80;51.78;100844.83;115097;1199;74504;-82
2021/11/05 12:06:48;;;;;;;12.60;7.80;;;;;;;19.80;51.67;100837.89;115090;1199;60576;-82
2021/11/05 12:09:27;;;;;;;12.30;7.70;;;;;;;19.80;51.85;100828.08;115184;1199;60286;-82
2021/11/05 12:12:42;;;;;;;13.60;8.50;;;;;;;19.79;51.93;100826.49;115171;1198;73646;-82
2021/11/05 12:26:15;;;;;;;14.00;8.20;;;;;;;19.75;51.76;100815.84;114454;1196;72256;31
2021/11/05 12:28:41;;;;;;;11.90;7.60;;;;;;;19.75;52.01;100814.06;115115;1199;74338;-81
2021/11/05 12:31:41;;;;;;;12.50;7.30;;;;;;;19.76;51.95;100813.13;115102;1199;59812;-82
2021/11/05 12:34:36;;;;;;;13.30;8.50;;;;;;;19.75;52.09;100812.83;114952;1202;61486;-83
2021/11/05 12:38:07;;;;;;;13.40;7.70;;;;;;;19.75;52.03;100813.20;114417;1209;71851;-83
2021/11/05 12:47:46;;;;;;;12.60;8.00;;;;;;;19.73;52.23;100799.77;114960;1196;60206;-82
2021/11/05 12:50:14;;;;;;;16.00;8.20;;;;;;;19.73;52.01;100811.36;115285;1198;72074;-82
2021/11/05 12:52:39;;;;;;;14.70;8.10;;;;;;;19.73;52.03;100811.33;115128;1198;75275;-82